createdAt,value
2019-03-05T00:00:50.527Z,100065.35
2019-03-05T00:03:21.801Z,100056.48
2019-03-05T00:05:53.380Z,100049.55
2019-03-05T00:08:24.560Z,100059.07
2019-03-05T00:10:56.365Z,100048.65
2019-03-05T00:13:27.690Z,100065.09
2019-03-05T00:15:58.929Z,100051.91
2019-03-05T00:18:31.058Z,100038.56
2019-03-05T00:21:03.291Z,99980.12
2019-03-05T00:23:43.559Z,100060.13
2019-03-05T00:26:15.291Z,100050.97
2019-03-05T00:28:49.667Z,100041.36
2019-03-05T00:31:27.118Z,100046.08
2019-03-05T00:34:04.085Z,100049.45
2019-03-05T00:36:47.991Z,100059.84
2019-03-05T00:39:25.319Z,100050.23
2019-03-05T00:42:25.676Z,100030.03
2019-03-05T00:45:02.924Z,100057.47
2019-03-05T00:47:37.301Z,100043.88
2019-03-05T00:50:21.785Z,100039.45
2019-03-05T00:53:15.869Z,100056.95
2019-03-05T00:56:05.338Z,100042.36
2019-03-05T00:58:42.587Z,100038.31
2019-03-05T01:01:33.674Z,100045.16
2019-03-05T01:04:19.894Z,100051.56
2019-03-05T01:06:51.238Z,100049.41
2019-03-05T01:09:22.740Z,100053.63
2019-03-05T01:11:54.052Z,100062.26
2019-03-05T01:14:25.596Z,100043.11
2019-03-05T01:16:56.861Z,100058.58
2019-03-05T01:19:28.181Z,100055.11
2019-03-05T01:21:59.605Z,100049.81
2019-03-05T01:24:30.931Z,100058.97
2019-03-05T01:27:03.678Z,100054.66
2019-03-05T01:29:34.906Z,100055.44
2019-03-05T01:32:07.690Z,100052.83
2019-03-05T01:34:40.630Z,100058.05
2019-03-05T01:37:11.883Z,100068.69
2019-03-05T01:40:02.638Z,100056.44
2019-03-05T01:42:33.772Z,100068.69
2019-03-05T01:45:08.441Z,100058.23
2019-03-05T01:47:39.730Z,100041.14
2019-03-05T01:50:11.695Z,100062.91
2019-03-05T01:52:42.792Z,100047.67
2019-03-05T01:55:13.976Z,100037.09
2019-03-05T01:57:45.092Z,100036.56
2019-03-05T02:00:16.181Z,100034.77
2019-03-05T02:02:49.334Z,100031.76
2019-03-05T02:05:21.613Z,100028.30
2019-03-05T02:07:52.693Z,100032.70
2019-03-05T02:10:24.951Z,100035.32
2019-03-05T02:12:56.152Z,100027.09
2019-03-05T02:15:27.457Z,100009.30
2019-03-05T02:17:58.626Z,100007.08
2019-03-05T02:20:29.753Z,100007.63
2019-03-05T02:23:07.298Z,100005.48
2019-03-05T02:25:41.622Z,100014.14
2019-03-05T02:28:21.910Z,100007.41
2019-03-05T02:30:59.008Z,100013.00
2019-03-05T02:33:50.079Z,100001.78
2019-03-05T02:36:24.522Z,100008.61
2019-03-05T02:39:32.353Z,99993.84
2019-03-05T02:42:34.143Z,99989.49
2019-03-05T02:45:31.595Z,99989.46
2019-03-05T02:48:20.707Z,99981.22
2019-03-05T02:51:00.766Z,99985.57
2019-03-05T02:54:00.938Z,99977.98
2019-03-05T02:57:08.832Z,99981.32
2019-03-05T02:59:39.977Z,99976.16
2019-03-05T03:02:12.799Z,99978.37
2019-03-05T03:04:48.564Z,99983.94
2019-03-05T03:07:19.721Z,99986.62
2019-03-05T03:09:54.259Z,99984.91
2019-03-05T03:12:25.311Z,99980.54
2019-03-05T03:14:56.582Z,99989.55
2019-03-05T03:17:27.778Z,99981.25
2019-03-05T03:19:59.213Z,99965.17
2019-03-05T03:22:30.311Z,99977.79
2019-03-05T03:25:01.766Z,99980.47
2019-03-05T03:27:32.966Z,99975.63
2019-03-05T03:30:06.691Z,99978.31
2019-03-05T03:32:37.902Z,99960.63
2019-03-05T03:35:12.626Z,99962.79
2019-03-05T03:37:43.628Z,99970.63
2019-03-05T03:40:19.867Z,99948.77
2019-03-05T03:42:51.077Z,99957.69
2019-03-05T03:45:22.300Z,99963.19
2019-03-05T03:47:53.481Z,99956.71
2019-03-05T03:50:24.754Z,99957.06
2019-03-05T03:52:57.522Z,99947.69
2019-03-05T03:55:28.660Z,99964.39
2019-03-05T03:57:59.706Z,99970.41
2019-03-05T04:00:30.933Z,99970.24
2019-03-05T04:03:06.074Z,99974.95
2019-03-05T04:05:37.230Z,99961.88
2019-03-05T04:08:10.485Z,99959.62
2019-03-05T04:10:41.414Z,99972.01
2019-03-05T04:13:12.569Z,99970.24
2019-03-05T04:15:44.465Z,99958.84
2019-03-05T04:18:15.685Z,99953.88
2019-03-05T04:20:49.632Z,99946.25
2019-03-05T04:23:21.004Z,99947.37
2019-03-05T04:25:52.278Z,99950.53
2019-03-05T04:28:23.452Z,99935.21
2019-03-05T04:30:54.674Z,99949.98
2019-03-05T04:33:25.917Z,99949.33
2019-03-05T04:35:57.167Z,99943.64
2019-03-05T04:38:29.440Z,99944.00
2019-03-05T04:41:00.680Z,99950.77
2019-03-05T04:43:31.977Z,99946.45
2019-03-05T04:46:04.759Z,99969.98
2019-03-05T04:48:35.893Z,99976.45
2019-03-05T04:51:08.820Z,99953.52
2019-03-05T04:53:40.099Z,99955.89
2019-03-05T04:56:11.287Z,99961.44
2019-03-05T04:58:43.691Z,99944.62
2019-03-05T05:01:14.975Z,99942.53
2019-03-05T05:03:49.184Z,99953.31
2019-03-05T05:06:20.408Z,99940.95
2019-03-05T05:08:51.467Z,99947.98
2019-03-05T05:11:22.761Z,99960.13
2019-03-05T05:13:54.243Z,99963.89
2019-03-05T05:16:25.635Z,99950.83
2019-03-05T05:18:57.271Z,99975.27
2019-03-05T05:21:28.503Z,99957.66
2019-03-05T05:23:59.660Z,99944.69
2019-03-05T05:26:30.781Z,99940.60
2019-03-05T05:29:02.161Z,99936.29
2019-03-05T05:31:33.355Z,99923.94
2019-03-05T05:34:05.247Z,99927.99
2019-03-05T05:36:36.385Z,99915.77
2019-03-05T05:39:10.725Z,99920.70
2019-03-05T05:41:42.125Z,99919.33
2019-03-05T05:44:13.215Z,99906.39
2019-03-05T05:46:44.334Z,99902.57
2019-03-05T05:49:17.043Z,99915.16
2019-03-05T05:51:48.237Z,99912.34
2019-03-05T05:54:19.429Z,99906.46
2019-03-05T05:56:50.778Z,99914.23
2019-03-05T05:59:23.237Z,99902.97
2019-03-05T06:01:56.627Z,99915.02
2019-03-05T06:04:27.783Z,99913.27
2019-03-05T06:06:58.954Z,99920.92
2019-03-05T06:09:30.397Z,99908.38
2019-03-05T06:12:01.675Z,99911.06
2019-03-05T06:14:33.143Z,99902.51
2019-03-05T06:17:04.335Z,99906.89
2019-03-05T06:19:35.574Z,99906.30
2019-03-05T06:22:06.685Z,99900.88
2019-03-05T06:24:37.933Z,99908.27
2019-03-05T06:27:09.088Z,99892.25
2019-03-05T06:29:40.323Z,99901.89
2019-03-05T06:32:12.547Z,99891.75
2019-03-05T06:34:43.808Z,99910.00
2019-03-05T06:37:15.019Z,99917.06
2019-03-05T06:39:46.435Z,99880.73
2019-03-05T06:42:18.741Z,99877.67
2019-03-05T06:44:49.909Z,99884.16
2019-03-05T06:47:22.311Z,99870.59
2019-03-05T06:49:53.644Z,99877.53
2019-03-05T06:52:24.793Z,99878.58
2019-03-05T06:54:56.111Z,99857.08
2019-03-05T06:57:28.374Z,99857.42
2019-03-05T06:59:59.585Z,99857.59
2019-03-05T07:02:30.880Z,99838.78
2019-03-05T07:05:02.001Z,99843.51
2019-03-05T07:07:33.917Z,99860.27
2019-03-05T07:10:16.344Z,99837.33
2019-03-05T07:12:51.850Z,99828.17
2019-03-05T07:15:51.295Z,99837.14
2019-03-05T07:18:30.253Z,99822.38
2019-03-05T07:21:39.643Z,99820.06
2019-03-05T07:24:39.773Z,99829.66
2019-03-05T07:27:10.859Z,99831.30
2019-03-05T07:29:43.709Z,99825.28
2019-03-05T07:32:14.843Z,99807.89
2019-03-05T07:34:47.725Z,99820.95
2019-03-05T07:37:18.973Z,99813.22
2019-03-05T07:39:50.410Z,99813.17
2019-03-05T07:42:21.602Z,99794.84
2019-03-05T07:44:52.811Z,99811.66
2019-03-05T07:47:24.031Z,99791.06
2019-03-05T07:49:55.441Z,99778.19
2019-03-05T07:52:26.643Z,99764.30
2019-03-05T07:54:57.878Z,99755.98
2019-03-05T07:57:29.113Z,99766.31
2019-03-05T08:00:00.453Z,99774.15
2019-03-05T08:02:32.054Z,99766.02
2019-03-05T08:05:03.692Z,99774.03
2019-03-05T08:07:38.121Z,99758.07
2019-03-05T08:10:21.128Z,99757.97
2019-03-05T08:13:10.835Z,99757.57
2019-03-05T08:16:09.798Z,99761.70
2019-03-05T08:18:41.372Z,99758.63
2019-03-05T08:21:12.589Z,99741.28
2019-03-05T08:23:48.246Z,99772.03
2019-03-05T08:26:20.391Z,99766.22
2019-03-05T08:28:53.437Z,99761.45
2019-03-05T08:31:24.849Z,99736.58
2019-03-05T08:33:56.464Z,99737.42
2019-03-05T08:36:27.490Z,99740.18
2019-03-05T08:38:59.100Z,99723.09
2019-03-05T08:41:30.470Z,99727.44
2019-03-05T08:44:02.136Z,99702.55
2019-03-05T08:46:33.510Z,99688.91
2019-03-05T08:49:04.702Z,99719.81
2019-03-05T08:51:36.909Z,99697.94
2019-03-05T08:54:09.492Z,99688.13
2019-03-05T08:56:47.604Z,99686.44
2019-03-05T08:59:15.965Z,99705.14
2019-03-05T09:01:47.255Z,99702.88
2019-03-05T09:04:18.729Z,99714.18
2019-03-05T09:06:51.473Z,99714.33
2019-03-05T09:09:23.051Z,99725.80
2019-03-05T09:11:58.538Z,99701.78
2019-03-05T09:14:30.898Z,99664.05
2019-03-05T09:17:02.135Z,99695.36
2019-03-05T09:19:33.359Z,99688.21
2019-03-05T09:22:04.659Z,99696.45
2019-03-05T09:24:35.801Z,99688.11
2019-03-05T09:27:09.887Z,99678.95
2019-03-05T09:29:41.148Z,99673.27
2019-03-05T09:32:12.324Z,99670.84
2019-03-05T09:34:43.388Z,99676.09
2019-03-05T09:37:15.685Z,99673.48
2019-03-05T09:39:47.047Z,99644.80
2019-03-05T09:42:18.431Z,99647.09
2019-03-05T09:44:49.665Z,99647.79
2019-03-05T09:47:22.938Z,99646.53
2019-03-05T09:49:54.119Z,99642.22
2019-03-05T09:52:25.753Z,99636.80
2019-03-05T09:54:57.102Z,99581.27
2019-03-05T09:57:29.248Z,99616.11
2019-03-05T10:00:00.628Z,99624.26
2019-03-05T10:02:31.872Z,99615.30
2019-03-05T10:05:03.119Z,99623.22
2019-03-05T10:07:34.364Z,99608.78
2019-03-05T10:10:10.475Z,99609.05
2019-03-05T10:12:41.620Z,99598.25
2019-03-05T10:15:23.669Z,99598.89
2019-03-05T10:17:55.055Z,99581.96
2019-03-05T10:20:31.454Z,99581.83
2019-03-05T10:23:02.634Z,99572.42
2019-03-05T10:25:33.750Z,99567.76
2019-03-05T10:28:06.009Z,99534.44
2019-03-05T10:30:42.845Z,99541.94
2019-03-05T10:33:15.881Z,99539.75
2019-03-05T10:35:47.228Z,99535.70
2019-03-05T10:38:18.499Z,99514.24
2019-03-05T10:40:54.445Z,99528.92
2019-03-05T10:43:25.740Z,99523.51
2019-03-05T10:45:56.976Z,99516.06
2019-03-05T10:48:30.348Z,99471.08
2019-03-05T10:51:05.475Z,99497.70
2019-03-05T10:53:36.829Z,99496.16
2019-03-05T10:56:08.058Z,99488.44
2019-03-05T10:58:39.919Z,99487.96
2019-03-05T11:01:11.164Z,99479.37
2019-03-05T11:03:42.580Z,99465.48
2019-03-05T11:06:13.892Z,99460.55
2019-03-05T11:08:45.539Z,99470.72
2019-03-05T11:11:16.705Z,99465.45
2019-03-05T11:13:49.756Z,99435.80
2019-03-05T11:16:31.059Z,99442.70
2019-03-05T11:19:01.466Z,99449.94
2019-03-05T11:21:33.049Z,99445.19
2019-03-05T11:24:04.642Z,99443.29
2019-03-05T11:26:35.907Z,99444.16
2019-03-05T11:29:08.425Z,99430.63
2019-03-05T11:31:40.243Z,99424.49
2019-03-05T11:34:13.246Z,99434.98
2019-03-05T11:36:44.816Z,99437.28
2019-03-05T11:39:16.155Z,99426.56
2019-03-05T11:41:47.543Z,99439.77
2019-03-05T11:44:18.820Z,99456.30
2019-03-05T11:46:50.036Z,99448.61
2019-03-05T11:49:22.357Z,99440.64
2019-03-05T11:51:53.755Z,99434.28
2019-03-05T11:54:29.118Z,99455.30
2019-03-05T11:57:03.103Z,99444.34
2019-03-05T11:59:34.413Z,99442.19
2019-03-05T12:02:07.011Z,99441.09
2019-03-05T12:04:38.204Z,99427.97
2019-03-05T12:07:10.098Z,99430.98
2019-03-05T12:09:53.567Z,99433.97
2019-03-05T12:12:27.275Z,99419.58
2019-03-05T12:14:59.932Z,99401.83
2019-03-05T12:17:31.247Z,99386.64
2019-03-05T12:20:03.495Z,99371.19
2019-03-05T12:22:34.892Z,99371.94
2019-03-05T12:25:11.916Z,99386.11
2019-03-05T12:27:43.455Z,99386.85
2019-03-05T12:30:19.998Z,99394.98
2019-03-05T12:32:51.468Z,99398.87
2019-03-05T12:35:22.746Z,99387.34
2019-03-05T12:37:53.926Z,99423.27
2019-03-05T12:40:27.152Z,99397.88
2019-03-05T12:42:58.376Z,99422.30
2019-03-05T12:45:29.645Z,99409.83
2019-03-05T12:48:00.800Z,99385.83
2019-03-05T12:50:36.833Z,99405.98
2019-03-05T12:53:08.184Z,99395.26
2019-03-05T12:55:39.384Z,99415.63
2019-03-05T12:58:13.704Z,99417.95
2019-03-05T13:00:45.396Z,99406.42
2019-03-05T13:03:16.774Z,99384.03
2019-03-05T13:05:48.096Z,99395.70
2019-03-05T13:08:21.891Z,99398.75
2019-03-05T13:10:53.177Z,99421.47
2019-03-05T13:13:24.493Z,99432.64
2019-03-05T13:15:56.533Z,99399.92
2019-03-05T13:18:30.996Z,99438.96
2019-03-05T13:21:03.703Z,99398.25
2019-03-05T13:23:35.746Z,99405.09
2019-03-05T13:26:07.569Z,99399.84
2019-03-05T13:28:40.489Z,99401.05
2019-03-05T13:31:12.857Z,99384.19
2019-03-05T13:33:44.492Z,99413.13
2019-03-05T13:36:16.731Z,99408.80
2019-03-05T13:38:48.405Z,99415.92
2019-03-05T13:41:19.628Z,99396.19
2019-03-05T13:43:59.796Z,99414.52
2019-03-05T13:46:31.368Z,99402.11
2019-03-05T13:49:20.936Z,99403.83
2019-03-05T13:52:01.069Z,99397.79
2019-03-05T13:54:39.146Z,99418.88
2019-03-05T13:57:43.579Z,99420.07
2019-03-05T14:00:15.259Z,99413.45
2019-03-05T14:03:04.673Z,99415.48
2019-03-05T14:06:03.142Z,99400.78
2019-03-05T14:08:55.852Z,99436.89
2019-03-05T14:11:27.093Z,99400.30
2019-03-05T14:13:58.488Z,99392.35
2019-03-05T14:16:29.801Z,99393.68
2019-03-05T14:19:01.181Z,99418.52
2019-03-05T14:21:32.357Z,99414.03
2019-03-05T14:24:03.922Z,99420.78
2019-03-05T14:26:35.178Z,99416.81
2019-03-05T14:29:06.585Z,99412.35
2019-03-05T14:31:38.111Z,99418.84
2019-03-05T14:34:09.612Z,99429.07
2019-03-05T14:36:41.793Z,99426.06
2019-03-05T14:39:26.835Z,99426.19
2019-03-05T14:41:58.312Z,99432.55
2019-03-05T14:44:39.415Z,99432.45
2019-03-05T14:47:04.769Z,99430.41
2019-03-05T14:49:36.063Z,99433.77
2019-03-05T14:52:15.911Z,99433.41
2019-03-05T14:54:47.917Z,99435.09
2019-03-05T14:57:19.332Z,99429.31
2019-03-05T14:59:50.889Z,99427.28
2019-03-05T15:02:31.184Z,99433.63
2019-03-05T15:05:02.840Z,99412.47
2019-03-05T15:07:35.898Z,99428.97
2019-03-05T15:10:09.470Z,99430.16
2019-03-05T15:12:41.325Z,99435.45
2019-03-05T15:15:22.922Z,99433.16
2019-03-05T15:17:59.019Z,99437.61
2019-03-05T15:20:43.594Z,99446.52
2019-03-05T15:23:18.422Z,99441.58
2019-03-05T15:25:51.834Z,99444.48
2019-03-05T15:28:24.837Z,99451.10
2019-03-05T15:30:57.335Z,99457.22
2019-03-05T15:33:34.994Z,99462.28
2019-03-05T15:36:06.303Z,99482.34
2019-03-05T15:38:37.605Z,99480.53
2019-03-05T15:41:08.834Z,99484.14
2019-03-05T15:43:40.071Z,99500.14
2019-03-05T15:46:11.607Z,99511.44
2019-03-05T15:48:42.801Z,99509.63
2019-03-05T15:51:15.487Z,99525.52
2019-03-05T15:56:17.957Z,99523.93
2019-03-05T15:58:49.239Z,99532.98
2019-03-05T16:01:22.550Z,99539.92
2019-03-05T16:03:53.451Z,99552.19
2019-03-05T16:06:24.924Z,99559.28
2019-03-05T16:08:57.882Z,99561.09
2019-03-05T16:11:30.219Z,99573.57
2019-03-05T16:14:02.878Z,99583.19
2019-03-05T16:16:34.490Z,99577.99
2019-03-05T16:19:05.910Z,99590.86
2019-03-05T16:21:41.218Z,99599.75
2019-03-05T16:24:10.197Z,99602.48
2019-03-05T16:26:41.526Z,99610.27
2019-03-05T16:29:16.309Z,99613.71
2019-03-05T16:31:51.651Z,99622.97
2019-03-05T16:34:27.661Z,99627.02
2019-03-05T16:37:02.050Z,99647.77
2019-03-05T16:39:36.481Z,99652.80
2019-03-05T16:42:10.857Z,99671.08
2019-03-05T16:45:02.633Z,99690.59
2019-03-05T16:47:39.504Z,99694.28
2019-03-05T16:50:31.790Z,99714.53
2019-03-05T16:53:07.584Z,99719.53
2019-03-05T16:55:43.285Z,99754.53
2019-03-05T16:58:24.211Z,99755.21
2019-03-05T17:01:15.562Z,99745.19
2019-03-05T17:03:57.502Z,99751.33
2019-03-05T17:06:42.554Z,99764.05
2019-03-05T17:09:15.391Z,99760.95
2019-03-05T17:11:55.616Z,99750.98
2019-03-05T17:14:27.197Z,99763.68
2019-03-05T17:16:58.460Z,99770.83
2019-03-05T17:19:29.636Z,99776.06
2019-03-05T17:22:03.153Z,99780.16
2019-03-05T17:24:34.404Z,99793.51
2019-03-05T17:27:08.250Z,99780.48
2019-03-05T17:29:39.334Z,99785.38
2019-03-05T17:32:10.871Z,99775.80
2019-03-05T17:34:41.982Z,99793.84
2019-03-05T17:37:13.223Z,99797.01
2019-03-05T17:39:44.550Z,99796.98
2019-03-05T17:42:16.052Z,99807.39
2019-03-05T17:44:47.564Z,99810.97
2019-03-05T17:47:18.694Z,99813.69
2019-03-05T17:49:49.962Z,99816.89
2019-03-05T17:52:22.218Z,99825.53
2019-03-05T17:54:53.849Z,99824.00
2019-03-05T17:57:25.100Z,99822.52
2019-03-05T17:59:56.365Z,99829.39
2019-03-05T18:02:28.716Z,99833.20
2019-03-05T18:05:00.040Z,99836.03
2019-03-05T18:07:31.189Z,99836.78
2019-03-05T18:10:08.143Z,99836.78
2019-03-05T18:12:47.718Z,99841.58
2019-03-05T18:15:20.165Z,99844.14
2019-03-05T18:17:51.507Z,99842.64
2019-03-05T18:20:23.379Z,99852.54
2019-03-05T18:22:54.539Z,99850.81
2019-03-05T18:25:25.712Z,99855.42
2019-03-05T18:27:56.955Z,99861.02
2019-03-05T18:30:32.192Z,99870.61
2019-03-05T18:33:03.452Z,99869.02
2019-03-05T18:35:34.808Z,99878.69
2019-03-05T18:38:06.072Z,99878.22
2019-03-05T18:40:37.584Z,99882.98
2019-03-05T18:43:09.218Z,99882.38
2019-03-05T18:45:40.628Z,99879.52
2019-03-05T18:48:11.732Z,99879.87
2019-03-05T18:50:42.943Z,99883.22
2019-03-05T18:53:15.121Z,99890.88
2019-03-05T18:55:46.431Z,99890.79
2019-03-05T18:58:17.657Z,99894.16
2019-03-05T19:00:51.567Z,99902.98
2019-03-05T19:03:23.993Z,99906.28
2019-03-05T19:05:55.201Z,99904.21
2019-03-05T19:08:26.383Z,99915.81
2019-03-05T19:10:57.700Z,99914.20
2019-03-05T19:13:30.147Z,99921.95
2019-03-05T19:16:01.557Z,99923.45
2019-03-05T19:18:32.786Z,99926.08
2019-03-05T19:21:03.948Z,99930.92
2019-03-05T19:23:35.051Z,99930.55
2019-03-05T19:26:06.892Z,99934.42
2019-03-05T19:28:38.065Z,99940.86
2019-03-05T19:31:09.356Z,99939.39
2019-03-05T19:33:40.690Z,99947.42
2019-03-05T19:36:11.930Z,99949.13
2019-03-05T19:38:44.471Z,99949.27
2019-03-05T19:41:16.000Z,99960.95
2019-03-05T19:43:48.442Z,99960.33
2019-03-05T19:46:19.807Z,99960.25
2019-03-05T19:48:51.165Z,99973.77
2019-03-05T19:51:22.608Z,99972.55
2019-03-05T19:53:53.753Z,99980.81
2019-03-05T19:56:25.062Z,99986.48
2019-03-05T19:58:56.484Z,99985.37
2019-03-05T20:01:29.373Z,99992.70
2019-03-05T20:04:00.451Z,99985.61
2019-03-05T20:06:32.059Z,99993.59
2019-03-05T20:09:04.004Z,99995.22
2019-03-05T20:11:36.910Z,99994.37
2019-03-05T20:14:07.980Z,100000.61
2019-03-05T20:16:39.469Z,100006.34
2019-03-05T20:19:10.642Z,100009.14
2019-03-05T20:21:41.854Z,100004.95
2019-03-05T20:24:14.139Z,100011.14
2019-03-05T20:26:45.344Z,100014.70
2019-03-05T20:29:16.738Z,100008.66
2019-03-05T20:31:47.984Z,100009.98
2019-03-05T20:34:19.233Z,100010.91
2019-03-05T20:36:50.654Z,100008.28
2019-03-05T20:39:21.983Z,100013.53
2019-03-05T20:41:53.387Z,100018.62
2019-03-05T20:44:25.116Z,100022.58
2019-03-05T20:46:56.478Z,100021.72
2019-03-05T20:49:27.948Z,100019.65
2019-03-05T20:51:59.426Z,100018.33
2019-03-05T20:54:30.742Z,100031.61
2019-03-05T20:57:02.045Z,100031.55
2019-03-05T20:59:33.200Z,100036.64
2019-03-05T21:02:04.404Z,100035.71
2019-03-05T21:04:37.762Z,100039.19
2019-03-05T21:07:10.724Z,100049.45
2019-03-05T21:09:41.882Z,100050.33
2019-03-05T21:12:13.118Z,100049.31
2019-03-05T21:14:47.339Z,100054.48
2019-03-05T21:17:18.745Z,100063.76
2019-03-05T21:19:49.891Z,100065.59
2019-03-05T21:22:21.145Z,100073.16
2019-03-05T21:24:52.400Z,100067.14
2019-03-05T21:27:23.737Z,100082.19
2019-03-05T21:29:55.002Z,100076.38
2019-03-05T21:32:26.465Z,100081.23
2019-03-05T21:34:57.707Z,100086.66
2019-03-05T21:37:29.320Z,100082.15
2019-03-05T21:40:07.152Z,100075.48
2019-03-05T21:42:39.032Z,100083.83
2019-03-05T21:45:17.129Z,100085.42
2019-03-05T21:47:50.623Z,100088.09
2019-03-05T21:50:23.209Z,100090.11
2019-03-05T21:52:54.828Z,100094.42
2019-03-05T21:55:27.963Z,100101.84
2019-03-05T21:58:02.451Z,100095.02
2019-03-05T22:00:39.879Z,100098.84
2019-03-05T22:03:19.903Z,100101.47
2019-03-05T22:05:52.408Z,100101.00
2019-03-05T22:08:23.532Z,100111.58
2019-03-05T22:10:55.208Z,100106.33
2019-03-05T22:13:26.661Z,100116.17
2019-03-05T22:15:58.250Z,100119.14
2019-03-05T22:18:29.802Z,100118.03
2019-03-05T22:21:00.988Z,100117.56
2019-03-05T22:23:32.300Z,100123.66
2019-03-05T22:26:05.169Z,100126.90
2019-03-05T22:28:36.558Z,100126.55
2019-03-05T22:31:07.930Z,100130.49
2019-03-05T22:33:39.197Z,100134.81
2019-03-05T22:36:10.500Z,100138.29
2019-03-05T22:38:41.895Z,100136.13
2019-03-05T22:41:13.167Z,100137.91
2019-03-05T22:43:44.392Z,100141.77
2019-03-05T22:46:22.759Z,100143.73
2019-03-05T22:48:55.535Z,100142.03
2019-03-05T22:51:27.749Z,100145.85
2019-03-05T22:53:59.250Z,100158.82
2019-03-05T22:56:30.622Z,100145.97
2019-03-05T22:59:01.922Z,100162.76
2019-03-05T23:01:35.449Z,100162.64
2019-03-05T23:04:08.703Z,100157.05
2019-03-05T23:06:44.521Z,100162.06
2019-03-05T23:09:17.164Z,100167.11
2019-03-05T23:11:52.887Z,100184.56
2019-03-05T23:14:26.115Z,100170.47
2019-03-05T23:16:59.857Z,100180.45
2019-03-05T23:19:34.856Z,100180.25
2019-03-05T23:22:07.682Z,100186.27
2019-03-05T23:24:39.669Z,100180.25
2019-03-05T23:27:15.110Z,100181.25
2019-03-05T23:29:46.946Z,100189.66
2019-03-05T23:32:18.437Z,100196.08
2019-03-05T23:34:50.757Z,100202.61
2019-03-05T23:37:27.683Z,100205.77
2019-03-05T23:39:59.144Z,100210.09
2019-03-05T23:42:30.545Z,100200.52
2019-03-05T23:45:01.662Z,100202.90
2019-03-05T23:47:33.780Z,100187.16
2019-03-05T23:50:08.353Z,100192.98
2019-03-05T23:52:42.277Z,100197.77
2019-03-05T23:55:16.463Z,100190.78
2019-03-05T23:57:47.811Z,100183.59
